sensor_id;sensor_type;location;lat;lon;timestamp;temperature;humidity
62154;DHT22;48140;45.486;9.226;2023-11-19T00:00:16;9.90;82.70
62154;DHT22;48140;45.486;9.226;2023-11-19T00:02:42;9.90;82.80
62154;DHT22;48140;45.486;9.226;2023-11-19T00:05:07;9.80;83.40
62154;DHT22;48140;45.486;9.226;2023-11-19T00:07:37;9.80;83.30
62154;DHT22;48140;45.486;9.226;2023-11-19T00:10:02;9.80;83.10
62154;DHT22;48140;45.486;9.226;2023-11-19T00:12:32;9.90;82.80
62154;DHT22;48140;45.486;9.226;2023-11-19T00:14:57;9.90;84.10
62154;DHT22;48140;45.486;9.226;2023-11-19T00:17:23;9.90;84.10
62154;DHT22;48140;45.486;9.226;2023-11-19T00:19:48;9.90;83.40
62154;DHT22;48140;45.486;9.226;2023-11-19T00:22:16;9.90;84.70
62154;DHT22;48140;45.486;9.226;2023-11-19T00:24:42;9.90;83.20
62154;DHT22;48140;45.486;9.226;2023-11-19T00:27:07;9.90;83.10
62154;DHT22;48140;45.486;9.226;2023-11-19T00:29:33;10.00;83.70
62154;DHT22;48140;45.486;9.226;2023-11-19T00:31:58;9.90;85.20
62154;DHT22;48140;45.486;9.226;2023-11-19T00:34:24;9.90;85.20
62154;DHT22;48140;45.486;9.226;2023-11-19T00:36:49;9.90;85.80
62154;DHT22;48140;45.486;9.226;2023-11-19T00:39:15;9.80;84.60
62154;DHT22;48140;45.486;9.226;2023-11-19T00:41:41;9.80;83.70
62154;DHT22;48140;45.486;9.226;2023-11-19T00:44:06;9.80;85.50
62154;DHT22;48140;45.486;9.226;2023-11-19T00:46:32;9.80;85.70
62154;DHT22;48140;45.486;9.226;2023-11-19T00:49:00;9.70;84.20
62154;DHT22;48140;45.486;9.226;2023-11-19T00:51:26;9.70;84.10
62154;DHT22;48140;45.486;9.226;2023-11-19T00:53:52;9.80;85.20
62154;DHT22;48140;45.486;9.226;2023-11-19T00:56:18;9.70;86.10
62154;DHT22;48140;45.486;9.226;2023-11-19T00:58:44;9.70;85.20
62154;DHT22;48140;45.486;9.226;2023-11-19T01:01:13;9.60;84.50
62154;DHT22;48140;45.486;9.226;2023-11-19T01:03:39;9.60;86.70
62154;DHT22;48140;45.486;9.226;2023-11-19T01:06:04;9.60;85.00
62154;DHT22;48140;45.486;9.226;2023-11-19T01:08:30;9.70;85.20
62154;DHT22;48140;45.486;9.226;2023-11-19T01:10:56;9.70;86.40
62154;DHT22;48140;45.486;9.226;2023-11-19T01:13:21;9.70;85.30
62154;DHT22;48140;45.486;9.226;2023-11-19T01:15:46;9.60;85.70
62154;DHT22;48140;45.486;9.226;2023-11-19T01:18:13;9.60;85.80
62154;DHT22;48140;45.486;9.226;2023-11-19T01:20:39;9.60;85.10
62154;DHT22;48140;45.486;9.226;2023-11-19T01:23:04;9.60;85.70
62154;DHT22;48140;45.486;9.226;2023-11-19T01:25:30;9.60;85.20
62154;DHT22;48140;45.486;9.226;2023-11-19T01:27:55;9.60;84.30
62154;DHT22;48140;45.486;9.226;2023-11-19T01:30:24;9.50;85.00
62154;DHT22;48140;45.486;9.226;2023-11-19T01:32:49;9.50;86.20
62154;DHT22;48140;45.486;9.226;2023-11-19T01:35:15;9.50;86.90
62154;DHT22;48140;45.486;9.226;2023-11-19T01:37:40;9.50;86.20
62154;DHT22;48140;45.486;9.226;2023-11-19T01:40:06;9.50;86.30
62154;DHT22;48140;45.486;9.226;2023-11-19T01:42:39;9.50;86.60
62154;DHT22;48140;45.486;9.226;2023-11-19T01:45:06;9.50;87.20
62154;DHT22;48140;45.486;9.226;2023-11-19T01:47:33;9.50;88.50
62154;DHT22;48140;45.486;9.226;2023-11-19T01:49:59;9.50;87.70
62154;DHT22;48140;45.486;9.226;2023-11-19T01:52:24;9.50;86.50
62154;DHT22;48140;45.486;9.226;2023-11-19T01:54:50;9.50;87.20
62154;DHT22;48140;45.486;9.226;2023-11-19T01:57:16;9.50;87.10
62154;DHT22;48140;45.486;9.226;2023-11-19T01:59:42;9.50;86.90
62154;DHT22;48140;45.486;9.226;2023-11-19T02:02:08;9.50;87.40
62154;DHT22;48140;45.486;9.226;2023-11-19T02:04:34;9.50;86.30
62154;DHT22;48140;45.486;9.226;2023-11-19T02:07:00;9.50;86.50
62154;DHT22;48140;45.486;9.226;2023-11-19T02:09:25;9.40;87.90
62154;DHT22;48140;45.486;9.226;2023-11-19T02:11:52;9.40;86.70
62154;DHT22;48140;45.486;9.226;2023-11-19T02:14:19;9.40;87.40
62154;DHT22;48140;45.486;9.226;2023-11-19T02:16:46;9.30;88.20
62154;DHT22;48140;45.486;9.226;2023-11-19T02:19:11;9.30;88.40
62154;DHT22;48140;45.486;9.226;2023-11-19T02:21:37;9.30;85.50
62154;DHT22;48140;45.486;9.226;2023-11-19T02:24:03;9.30;84.90
62154;DHT22;48140;45.486;9.226;2023-11-19T02:26:50;9.20;86.20
62154;DHT22;48140;45.486;9.226;2023-11-19T02:29:18;9.20;88.00
62154;DHT22;48140;45.486;9.226;2023-11-19T02:31:43;9.20;87.00
62154;DHT22;48140;45.486;9.226;2023-11-19T02:34:10;9.20;85.90
62154;DHT22;48140;45.486;9.226;2023-11-19T02:36:36;9.20;85.90
62154;DHT22;48140;45.486;9.226;2023-11-19T02:39:01;9.20;88.50
62154;DHT22;48140;45.486;9.226;2023-11-19T02:41:27;9.20;86.70
62154;DHT22;48140;45.486;9.226;2023-11-19T02:43:52;9.20;86.40
62154;DHT22;48140;45.486;9.226;2023-11-19T02:46:18;9.20;84.90
62154;DHT22;48140;45.486;9.226;2023-11-19T02:48:44;9.20;87.50
62154;DHT22;48140;45.486;9.226;2023-11-19T02:51:11;9.10;88.00
62154;DHT22;48140;45.486;9.226;2023-11-19T02:53:37;9.10;85.60
62154;DHT22;48140;45.486;9.226;2023-11-19T02:56:03;9.10;85.30
62154;DHT22;48140;45.486;9.226;2023-11-19T02:58:37;9.10;84.80
62154;DHT22;48140;45.486;9.226;2023-11-19T03:01:04;9.10;85.30
62154;DHT22;48140;45.486;9.226;2023-11-19T03:03:38;9.10;85.50
62154;DHT22;48140;45.486;9.226;2023-11-19T03:06:05;9.10;85.50
62154;DHT22;48140;45.486;9.226;2023-11-19T03:08:31;9.10;85.30
62154;DHT22;48140;45.486;9.226;2023-11-19T03:10:57;9.00;85.20
62154;DHT22;48140;45.486;9.226;2023-11-19T03:13:24;9.10;84.70
62154;DHT22;48140;45.486;9.226;2023-11-19T03:15:49;9.10;85.20
62154;DHT22;48140;45.486;9.226;2023-11-19T03:18:15;9.00;86.80
62154;DHT22;48140;45.486;9.226;2023-11-19T03:20:40;9.00;87.90
62154;DHT22;48140;45.486;9.226;2023-11-19T03:23:06;9.00;87.20
62154;DHT22;48140;45.486;9.226;2023-11-19T03:25:32;9.00;86.90
62154;DHT22;48140;45.486;9.226;2023-11-19T03:28:02;9.00;87.30
62154;DHT22;48140;45.486;9.226;2023-11-19T03:30:28;9.00;86.60
62154;DHT22;48140;45.486;9.226;2023-11-19T03:32:55;9.00;86.30
62154;DHT22;48140;45.486;9.226;2023-11-19T03:35:20;9.00;87.00
62154;DHT22;48140;45.486;9.226;2023-11-19T03:37:46;8.90;86.50
62154;DHT22;48140;45.486;9.226;2023-11-19T03:40:12;8.90;87.60
62154;DHT22;48140;45.486;9.226;2023-11-19T03:42:37;8.90;88.70
62154;DHT22;48140;45.486;9.226;2023-11-19T03:45:05;8.80;89.30
62154;DHT22;48140;45.486;9.226;2023-11-19T03:47:34;8.90;90.10
62154;DHT22;48140;45.486;9.226;2023-11-19T03:49:59;8.80;89.20
62154;DHT22;48140;45.486;9.226;2023-11-19T03:52:25;8.80;90.20
62154;DHT22;48140;45.486;9.226;2023-11-19T03:54:52;8.70;90.10
62154;DHT22;48140;45.486;9.226;2023-11-19T03:57:18;8.70;90.10
62154;DHT22;48140;45.486;9.226;2023-11-19T03:59:44;8.70;90.10
62154;DHT22;48140;45.486;9.226;2023-11-19T04:02:10;8.70;88.90
62154;DHT22;48140;45.486;9.226;2023-11-19T04:04:35;8.70;89.30
62154;DHT22;48140;45.486;9.226;2023-11-19T04:07:01;8.70;89.20
62154;DHT22;48140;45.486;9.226;2023-11-19T04:09:28;8.70;89.00
62154;DHT22;48140;45.486;9.226;2023-11-19T04:11:55;8.70;89.30
62154;DHT22;48140;45.486;9.226;2023-11-19T04:14:21;8.70;89.40
62154;DHT22;48140;45.486;9.226;2023-11-19T04:16:46;8.70;89.60
62154;DHT22;48140;45.486;9.226;2023-11-19T04:19:12;8.60;90.20
62154;DHT22;48140;45.486;9.226;2023-11-19T04:21:40;8.60;89.60
62154;DHT22;48140;45.486;9.226;2023-11-19T04:24:09;8.60;90.00
62154;DHT22;48140;45.486;9.226;2023-11-19T04:26:41;8.60;90.90
62154;DHT22;48140;45.486;9.226;2023-11-19T04:29:08;8.60;90.80
62154;DHT22;48140;45.486;9.226;2023-11-19T04:31:34;8.60;91.10
62154;DHT22;48140;45.486;9.226;2023-11-19T04:34:00;8.50;91.00
62154;DHT22;48140;45.486;9.226;2023-11-19T04:36:25;8.50;91.30
62154;DHT22;48140;45.486;9.226;2023-11-19T04:38:51;8.50;91.60
62154;DHT22;48140;45.486;9.226;2023-11-19T04:41:16;8.40;91.90
62154;DHT22;48140;45.486;9.226;2023-11-19T04:43:44;8.40;91.60
62154;DHT22;48140;45.486;9.226;2023-11-19T04:46:09;8.40;91.90
62154;DHT22;48140;45.486;9.226;2023-11-19T04:48:35;8.40;92.10
62154;DHT22;48140;45.486;9.226;2023-11-19T04:51:00;8.40;91.80
62154;DHT22;48140;45.486;9.226;2023-11-19T04:53:26;8.40;91.90
62154;DHT22;48140;45.486;9.226;2023-11-19T04:55:51;8.40;91.80
62154;DHT22;48140;45.486;9.226;2023-11-19T04:58:17;8.40;92.20
62154;DHT22;48140;45.486;9.226;2023-11-19T05:00:42;8.40;91.50
62154;DHT22;48140;45.486;9.226;2023-11-19T05:03:08;8.30;91.50
62154;DHT22;48140;45.486;9.226;2023-11-19T05:05:33;8.30;91.50
62154;DHT22;48140;45.486;9.226;2023-11-19T05:07:59;8.40;92.10
62154;DHT22;48140;45.486;9.226;2023-11-19T05:10:24;8.30;92.00
62154;DHT22;48140;45.486;9.226;2023-11-19T05:12:50;8.30;92.40
62154;DHT22;48140;45.486;9.226;2023-11-19T05:15:17;8.30;92.60
62154;DHT22;48140;45.486;9.226;2023-11-19T05:17:42;8.30;90.90
62154;DHT22;48140;45.486;9.226;2023-11-19T05:20:08;8.30;91.30
62154;DHT22;48140;45.486;9.226;2023-11-19T05:22:41;8.30;91.50
62154;DHT22;48140;45.486;9.226;2023-11-19T05:25:07;8.30;92.10
62154;DHT22;48140;45.486;9.226;2023-11-19T05:27:34;8.30;92.00
62154;DHT22;48140;45.486;9.226;2023-11-19T05:30:00;8.20;92.80
62154;DHT22;48140;45.486;9.226;2023-11-19T05:32:25;8.20;92.40
62154;DHT22;48140;45.486;9.226;2023-11-19T05:34:51;8.20;92.60
62154;DHT22;48140;45.486;9.226;2023-11-19T05:37:16;8.10;92.90
62154;DHT22;48140;45.486;9.226;2023-11-19T05:39:42;8.10;93.30
62154;DHT22;48140;45.486;9.226;2023-11-19T05:42:07;8.10;93.40
62154;DHT22;48140;45.486;9.226;2023-11-19T05:44:33;8.10;93.30
62154;DHT22;48140;45.486;9.226;2023-11-19T05:46:58;8.10;93.60
62154;DHT22;48140;45.486;9.226;2023-11-19T05:49:24;8.10;93.70
62154;DHT22;48140;45.486;9.226;2023-11-19T05:51:49;8.00;94.20
62154;DHT22;48140;45.486;9.226;2023-11-19T05:54:15;8.10;94.00
62154;DHT22;48140;45.486;9.226;2023-11-19T05:56:41;8.20;93.40
62154;DHT22;48140;45.486;9.226;2023-11-19T05:59:07;8.20;93.90
62154;DHT22;48140;45.486;9.226;2023-11-19T06:01:40;8.10;93.10
62154;DHT22;48140;45.486;9.226;2023-11-19T06:04:07;8.10;93.40
62154;DHT22;48140;45.486;9.226;2023-11-19T06:06:32;8.10;93.80
62154;DHT22;48140;45.486;9.226;2023-11-19T06:08:58;8.10;94.20
62154;DHT22;48140;45.486;9.226;2023-11-19T06:11:23;8.10;94.00
62154;DHT22;48140;45.486;9.226;2023-11-19T06:13:52;8.10;94.30
62154;DHT22;48140;45.486;9.226;2023-11-19T06:16:17;8.20;94.30
62154;DHT22;48140;45.486;9.226;2023-11-19T06:18:43;8.20;94.00
62154;DHT22;48140;45.486;9.226;2023-11-19T06:21:09;8.10;93.60
62154;DHT22;48140;45.486;9.226;2023-11-19T06:23:35;8.10;92.50
62154;DHT22;48140;45.486;9.226;2023-11-19T06:26:00;8.10;92.20
62154;DHT22;48140;45.486;9.226;2023-11-19T06:28:26;8.10;92.50
62154;DHT22;48140;45.486;9.226;2023-11-19T06:30:52;8.00;92.70
62154;DHT22;48140;45.486;9.226;2023-11-19T06:33:18;8.00;92.70
62154;DHT22;48140;45.486;9.226;2023-11-19T06:35:44;8.00;92.80
62154;DHT22;48140;45.486;9.226;2023-11-19T06:38:10;7.90;92.70
62154;DHT22;48140;45.486;9.226;2023-11-19T06:40:35;8.00;93.20
62154;DHT22;48140;45.486;9.226;2023-11-19T06:43:01;7.90;92.80
62154;DHT22;48140;45.486;9.226;2023-11-19T06:45:29;7.90;93.10
62154;DHT22;48140;45.486;9.226;2023-11-19T06:47:54;7.90;93.30
62154;DHT22;48140;45.486;9.226;2023-11-19T06:50:20;8.00;93.20
62154;DHT22;48140;45.486;9.226;2023-11-19T06:52:46;8.00;92.60
62154;DHT22;48140;45.486;9.226;2023-11-19T06:55:11;8.00;92.50
62154;DHT22;48140;45.486;9.226;2023-11-19T06:57:37;8.10;92.70
62154;DHT22;48140;45.486;9.226;2023-11-19T07:00:02;8.10;92.10
62154;DHT22;48140;45.486;9.226;2023-11-19T07:02:30;8.10;92.30
62154;DHT22;48140;45.486;9.226;2023-11-19T07:04:56;8.10;90.70
62154;DHT22;48140;45.486;9.226;2023-11-19T07:07:22;8.10;90.10
62154;DHT22;48140;45.486;9.226;2023-11-19T07:09:47;8.20;90.10
62154;DHT22;48140;45.486;9.226;2023-11-19T07:12:13;8.30;91.60
62154;DHT22;48140;45.486;9.226;2023-11-19T07:14:39;8.40;90.80
62154;DHT22;48140;45.486;9.226;2023-11-19T07:17:05;8.40;90.70
62154;DHT22;48140;45.486;9.226;2023-11-19T07:19:31;8.50;89.10
62154;DHT22;48140;45.486;9.226;2023-11-19T07:21:57;8.60;85.60
62154;DHT22;48140;45.486;9.226;2023-11-19T07:24:22;8.60;84.60
62154;DHT22;48140;45.486;9.226;2023-11-19T07:26:48;8.80;83.10
62154;DHT22;48140;45.486;9.226;2023-11-19T07:29:14;8.80;82.10
62154;DHT22;48140;45.486;9.226;2023-11-19T07:31:42;8.70;82.30
62154;DHT22;48140;45.486;9.226;2023-11-19T07:34:09;8.80;82.80
62154;DHT22;48140;45.486;9.226;2023-11-19T07:36:36;8.80;82.80
62154;DHT22;48140;45.486;9.226;2023-11-19T07:39:01;8.90;81.80
62154;DHT22;48140;45.486;9.226;2023-11-19T07:41:27;8.90;81.40
62154;DHT22;48140;45.486;9.226;2023-11-19T07:43:52;8.90;79.80
62154;DHT22;48140;45.486;9.226;2023-11-19T07:46:19;9.00;79.10
62154;DHT22;48140;45.486;9.226;2023-11-19T07:48:45;9.00;82.80
62154;DHT22;48140;45.486;9.226;2023-11-19T07:51:12;9.10;79.20
62154;DHT22;48140;45.486;9.226;2023-11-19T07:53:38;9.10;79.30
62154;DHT22;48140;45.486;9.226;2023-11-19T07:56:04;9.10;79.00
62154;DHT22;48140;45.486;9.226;2023-11-19T07:58:29;9.20;79.20
62154;DHT22;48140;45.486;9.226;2023-11-19T08:00:55;9.20;78.20
62154;DHT22;48140;45.486;9.226;2023-11-19T08:03:20;9.30;78.30
62154;DHT22;48140;45.486;9.226;2023-11-19T08:05:47;9.30;77.90
62154;DHT22;48140;45.486;9.226;2023-11-19T08:08:13;9.40;77.20
62154;DHT22;48140;45.486;9.226;2023-11-19T08:10:39;9.40;78.00
62154;DHT22;48140;45.486;9.226;2023-11-19T08:13:05;9.60;77.50
62154;DHT22;48140;45.486;9.226;2023-11-19T08:15:31;9.70;75.80
62154;DHT22;48140;45.486;9.226;2023-11-19T08:17:56;9.70;75.10
62154;DHT22;48140;45.486;9.226;2023-11-19T08:20:22;9.80;74.20
62154;DHT22;48140;45.486;9.226;2023-11-19T08:22:48;10.00;73.10
62154;DHT22;48140;45.486;9.226;2023-11-19T08:25:13;10.10;73.20
62154;DHT22;48140;45.486;9.226;2023-11-19T08:27:39;10.20;74.30
62154;DHT22;48140;45.486;9.226;2023-11-19T08:30:05;10.30;73.40
62154;DHT22;48140;45.486;9.226;2023-11-19T08:32:31;10.40;72.70
62154;DHT22;48140;45.486;9.226;2023-11-19T08:34:57;10.50;72.90
62154;DHT22;48140;45.486;9.226;2023-11-19T08:37:22;10.50;70.00
62154;DHT22;48140;45.486;9.226;2023-11-19T08:39:48;10.70;69.80
62154;DHT22;48140;45.486;9.226;2023-11-19T08:42:14;10.80;69.30
62154;DHT22;48140;45.486;9.226;2023-11-19T08:44:39;10.90;68.40
62154;DHT22;48140;45.486;9.226;2023-11-19T08:47:08;10.90;67.00
62154;DHT22;48140;45.486;9.226;2023-11-19T08:49:34;11.00;66.30
62154;DHT22;48140;45.486;9.226;2023-11-19T08:52:00;11.20;66.50
62154;DHT22;48140;45.486;9.226;2023-11-19T08:54:25;11.60;65.90
62154;DHT22;48140;45.486;9.226;2023-11-19T08:56:51;12.00;63.90
62154;DHT22;48140;45.486;9.226;2023-11-19T08:59:16;12.20;64.50
62154;DHT22;48140;45.486;9.226;2023-11-19T09:01:42;12.60;60.40
62154;DHT22;48140;45.486;9.226;2023-11-19T09:04:08;12.90;59.10
62154;DHT22;48140;45.486;9.226;2023-11-19T09:06:35;13.40;58.10
62154;DHT22;48140;45.486;9.226;2023-11-19T09:09:00;14.00;56.00
62154;DHT22;48140;45.486;9.226;2023-11-19T09:11:31;14.50;53.70
62154;DHT22;48140;45.486;9.226;2023-11-19T09:13:57;14.70;52.40
62154;DHT22;48140;45.486;9.226;2023-11-19T09:16:22;15.10;50.10
62154;DHT22;48140;45.486;9.226;2023-11-19T09:18:48;15.70;48.90
62154;DHT22;48140;45.486;9.226;2023-11-19T09:21:13;15.90;45.60
62154;DHT22;48140;45.486;9.226;2023-11-19T09:23:39;15.60;44.40
62154;DHT22;48140;45.486;9.226;2023-11-19T09:26:05;15.60;44.10
62154;DHT22;48140;45.486;9.226;2023-11-19T09:28:31;15.80;43.50
62154;DHT22;48140;45.486;9.226;2023-11-19T09:30:57;16.00;42.90
62154;DHT22;48140;45.486;9.226;2023-11-19T09:33:24;16.10;43.00
62154;DHT22;48140;45.486;9.226;2023-11-19T09:35:50;16.40;42.00
62154;DHT22;48140;45.486;9.226;2023-11-19T09:38:16;16.40;42.00
62154;DHT22;48140;45.486;9.226;2023-11-19T09:40:42;17.00;40.70
62154;DHT22;48140;45.486;9.226;2023-11-19T09:43:07;17.60;39.20
62154;DHT22;48140;45.486;9.226;2023-11-19T09:45:38;17.40;39.60
62154;DHT22;48140;45.486;9.226;2023-11-19T09:48:05;17.40;38.50
62154;DHT22;48140;45.486;9.226;2023-11-19T09:50:31;17.50;38.80
62154;DHT22;48140;45.486;9.226;2023-11-19T09:52:57;17.60;37.90
62154;DHT22;48140;45.486;9.226;2023-11-19T09:55:22;17.80;37.50
62154;DHT22;48140;45.486;9.226;2023-11-19T09:57:48;17.80;38.10
62154;DHT22;48140;45.486;9.226;2023-11-19T10:00:15;18.20;37.60
62154;DHT22;48140;45.486;9.226;2023-11-19T10:02:40;17.90;38.00
62154;DHT22;48140;45.486;9.226;2023-11-19T10:05:07;17.90;38.00
62154;DHT22;48140;45.486;9.226;2023-11-19T10:07:33;17.90;38.00
62154;DHT22;48140;45.486;9.226;2023-11-19T10:10:02;18.10;38.20
62154;DHT22;48140;45.486;9.226;2023-11-19T10:12:31;18.10;38.00
62154;DHT22;48140;45.486;9.226;2023-11-19T10:14:57;17.90;37.90
62154;DHT22;48140;45.486;9.226;2023-11-19T10:17:33;17.90;39.00
62154;DHT22;48140;45.486;9.226;2023-11-19T10:19:58;18.20;39.30
62154;DHT22;48140;45.486;9.226;2023-11-19T10:22:24;17.90;42.20
62154;DHT22;48140;45.486;9.226;2023-11-19T10:24:52;17.70;44.10
62154;DHT22;48140;45.486;9.226;2023-11-19T10:27:17;18.00;44.10
62154;DHT22;48140;45.486;9.226;2023-11-19T10:29:46;18.00;44.80
62154;DHT22;48140;45.486;9.226;2023-11-19T10:32:12;18.20;44.80
62154;DHT22;48140;45.486;9.226;2023-11-19T10:34:39;17.80;46.90
62154;DHT22;48140;45.486;9.226;2023-11-19T10:37:05;17.70;48.30
62154;DHT22;48140;45.486;9.226;2023-11-19T10:39:38;18.00;48.90
62154;DHT22;48140;45.486;9.226;2023-11-19T10:42:16;17.90;49.80
62154;DHT22;48140;45.486;9.226;2023-11-19T10:44:42;17.70;50.90
62154;DHT22;48140;45.486;9.226;2023-11-19T10:47:07;16.90;53.00
62154;DHT22;48140;45.486;9.226;2023-11-19T10:49:34;16.70;53.80
62154;DHT22;48140;45.486;9.226;2023-11-19T10:52:00;16.60;54.90
62154;DHT22;48140;45.486;9.226;2023-11-19T10:54:27;16.70;54.50
62154;DHT22;48140;45.486;9.226;2023-11-19T10:56:59;16.70;54.50
62154;DHT22;48140;45.486;9.226;2023-11-19T10:59:25;16.80;54.20
62154;DHT22;48140;45.486;9.226;2023-11-19T11:01:53;16.80;53.50
62154;DHT22;48140;45.486;9.226;2023-11-19T11:04:22;17.30;53.60
62154;DHT22;48140;45.486;9.226;2023-11-19T11:06:48;17.10;52.20
62154;DHT22;48140;45.486;9.226;2023-11-19T11:09:14;16.90;53.40
62154;DHT22;48140;45.486;9.226;2023-11-19T11:11:40;16.80;53.20
62154;DHT22;48140;45.486;9.226;2023-11-19T11:14:11;17.40;52.60
62154;DHT22;48140;45.486;9.226;2023-11-19T11:16:37;17.30;51.70
62154;DHT22;48140;45.486;9.226;2023-11-19T11:19:03;17.40;51.70
62154;DHT22;48140;45.486;9.226;2023-11-19T11:21:28;17.60;50.90
62154;DHT22;48140;45.486;9.226;2023-11-19T11:24:01;17.70;50.90
62154;DHT22;48140;45.486;9.226;2023-11-19T11:29:24;17.20;51.20
62154;DHT22;48140;45.486;9.226;2023-11-19T11:37:14;18.70;51.20
62154;DHT22;48140;45.486;9.226;2023-11-19T11:39:43;19.50;49.20
62154;DHT22;48140;45.486;9.226;2023-11-19T11:45:04;19.40;46.60
62154;DHT22;48140;45.486;9.226;2023-11-19T11:50:08;18.80;46.40
62154;DHT22;48140;45.486;9.226;2023-11-19T11:52:33;19.10;46.70
62154;DHT22;48140;45.486;9.226;2023-11-19T11:55:04;19.60;45.70
62154;DHT22;48140;45.486;9.226;2023-11-19T11:57:35;20.20;44.40
62154;DHT22;48140;45.486;9.226;2023-11-19T12:00:01;20.50;43.70
62154;DHT22;48140;45.486;9.226;2023-11-19T12:02:30;20.40;43.50
62154;DHT22;48140;45.486;9.226;2023-11-19T12:04:56;21.00;42.50
62154;DHT22;48140;45.486;9.226;2023-11-19T12:07:22;21.40;41.10
62154;DHT22;48140;45.486;9.226;2023-11-19T12:09:52;21.80;40.70
62154;DHT22;48140;45.486;9.226;2023-11-19T12:20:05;22.10;38.90
62154;DHT22;48140;45.486;9.226;2023-11-19T12:22:35;22.60;38.50
62154;DHT22;48140;45.486;9.226;2023-11-19T12:25:01;22.30;38.00
62154;DHT22;48140;45.486;9.226;2023-11-19T12:27:27;22.30;38.20
62154;DHT22;48140;45.486;9.226;2023-11-19T12:29:53;22.80;39.80
62154;DHT22;48140;45.486;9.226;2023-11-19T12:32:19;22.50;39.30
62154;DHT22;48140;45.486;9.226;2023-11-19T12:34:45;22.40;40.30
62154;DHT22;48140;45.486;9.226;2023-11-19T12:37:10;22.50;39.80
62154;DHT22;48140;45.486;9.226;2023-11-19T12:39:36;22.30;39.20
62154;DHT22;48140;45.486;9.226;2023-11-19T12:42:01;22.90;39.30
62154;DHT22;48140;45.486;9.226;2023-11-19T12:44:27;22.50;39.30
62154;DHT22;48140;45.486;9.226;2023-11-19T12:47:06;22.10;40.20
62154;DHT22;48140;45.486;9.226;2023-11-19T12:49:34;22.70;39.20
62154;DHT22;48140;45.486;9.226;2023-11-19T12:52:00;22.20;39.80
62154;DHT22;48140;45.486;9.226;2023-11-19T12:54:35;22.50;39.10
62154;DHT22;48140;45.486;9.226;2023-11-19T12:57:00;22.10;39.70
62154;DHT22;48140;45.486;9.226;2023-11-19T12:59:26;22.60;38.70
62154;DHT22;48140;45.486;9.226;2023-11-19T13:01:56;23.20;37.80
62154;DHT22;48140;45.486;9.226;2023-11-19T13:04:21;22.70;39.00
62154;DHT22;48140;45.486;9.226;2023-11-19T13:06:47;22.50;39.50
62154;DHT22;48140;45.486;9.226;2023-11-19T13:09:46;22.30;39.10
62154;DHT22;48140;45.486;9.226;2023-11-19T13:12:14;21.90;40.30
62154;DHT22;48140;45.486;9.226;2023-11-19T13:14:39;22.20;39.50
62154;DHT22;48140;45.486;9.226;2023-11-19T13:17:07;22.00;39.60
62154;DHT22;48140;45.486;9.226;2023-11-19T13:19:33;22.30;39.10
62154;DHT22;48140;45.486;9.226;2023-11-19T13:22:00;22.40;39.20
62154;DHT22;48140;45.486;9.226;2023-11-19T13:24:25;22.40;39.10
62154;DHT22;48140;45.486;9.226;2023-11-19T13:26:51;22.40;39.60
62154;DHT22;48140;45.486;9.226;2023-11-19T13:29:16;22.00;39.70
62154;DHT22;48140;45.486;9.226;2023-11-19T13:31:42;22.20;39.60
62154;DHT22;48140;45.486;9.226;2023-11-19T13:34:07;22.40;37.10
62154;DHT22;48140;45.486;9.226;2023-11-19T13:36:33;21.70;39.80
62154;DHT22;48140;45.486;9.226;2023-11-19T13:38:59;22.20;38.80
62154;DHT22;48140;45.486;9.226;2023-11-19T13:41:26;22.20;38.90
62154;DHT22;48140;45.486;9.226;2023-11-19T13:43:52;23.00;37.70
62154;DHT22;48140;45.486;9.226;2023-11-19T13:46:18;23.00;37.20
62154;DHT22;48140;45.486;9.226;2023-11-19T13:48:43;23.00;37.40
62154;DHT22;48140;45.486;9.226;2023-11-19T13:51:09;23.00;37.10
62154;DHT22;48140;45.486;9.226;2023-11-19T13:53:35;23.00;37.30
62154;DHT22;48140;45.486;9.226;2023-11-19T13:56:01;23.10;36.70
62154;DHT22;48140;45.486;9.226;2023-11-19T13:58:26;23.10;36.90
62154;DHT22;48140;45.486;9.226;2023-11-19T14:00:52;23.30;37.30
62154;DHT22;48140;45.486;9.226;2023-11-19T14:03:17;23.30;36.80
62154;DHT22;48140;45.486;9.226;2023-11-19T14:05:43;23.20;36.90
62154;DHT22;48140;45.486;9.226;2023-11-19T14:08:09;23.80;35.70
62154;DHT22;48140;45.486;9.226;2023-11-19T14:10:38;23.00;36.90
62154;DHT22;48140;45.486;9.226;2023-11-19T14:13:04;22.90;36.90
62154;DHT22;48140;45.486;9.226;2023-11-19T14:15:30;23.20;36.80
62154;DHT22;48140;45.486;9.226;2023-11-19T14:17:55;22.80;37.10
62154;DHT22;48140;45.486;9.226;2023-11-19T14:20:21;23.00;37.40
62154;DHT22;48140;45.486;9.226;2023-11-19T14:22:47;23.30;37.50
62154;DHT22;48140;45.486;9.226;2023-11-19T14:25:14;23.10;37.70
62154;DHT22;48140;45.486;9.226;2023-11-19T14:27:40;23.10;37.30
62154;DHT22;48140;45.486;9.226;2023-11-19T14:30:06;23.10;37.30
62154;DHT22;48140;45.486;9.226;2023-11-19T14:32:33;22.70;37.70
62154;DHT22;48140;45.486;9.226;2023-11-19T14:34:59;22.60;37.80
62154;DHT22;48140;45.486;9.226;2023-11-19T14:37:24;22.10;40.20
62154;DHT22;48140;45.486;9.226;2023-11-19T14:39:50;22.00;39.20
62154;DHT22;48140;45.486;9.226;2023-11-19T14:42:16;21.40;41.50
62154;DHT22;48140;45.486;9.226;2023-11-19T14:44:42;21.10;41.00
62154;DHT22;48140;45.486;9.226;2023-11-19T14:47:07;21.40;40.80
62154;DHT22;48140;45.486;9.226;2023-11-19T14:49:34;21.70;40.00
62154;DHT22;48140;45.486;9.226;2023-11-19T14:52:00;22.00;39.50
62154;DHT22;48140;45.486;9.226;2023-11-19T14:54:25;22.10;38.90
62154;DHT22;48140;45.486;9.226;2023-11-19T14:56:51;22.10;38.80
62154;DHT22;48140;45.486;9.226;2023-11-19T14:59:17;21.40;40.00
62154;DHT22;48140;45.486;9.226;2023-11-19T15:01:46;21.40;40.40
62154;DHT22;48140;45.486;9.226;2023-11-19T15:04:12;21.60;39.90
62154;DHT22;48140;45.486;9.226;2023-11-19T15:06:37;21.00;40.90
62154;DHT22;48140;45.486;9.226;2023-11-19T15:09:03;21.20;40.90
62154;DHT22;48140;45.486;9.226;2023-11-19T15:11:29;21.00;40.40
62154;DHT22;48140;45.486;9.226;2023-11-19T15:13:55;20.60;41.50
62154;DHT22;48140;45.486;9.226;2023-11-19T15:16:20;20.60;41.70
62154;DHT22;48140;45.486;9.226;2023-11-19T15:18:51;20.00;42.30
62154;DHT22;48140;45.486;9.226;2023-11-19T15:21:17;19.50;43.50
62154;DHT22;48140;45.486;9.226;2023-11-19T15:23:43;18.90;44.90
62154;DHT22;48140;45.486;9.226;2023-11-19T15:26:08;18.50;46.40
62154;DHT22;48140;45.486;9.226;2023-11-19T15:28:37;18.40;46.80
62154;DHT22;48140;45.486;9.226;2023-11-19T15:31:03;18.10;46.70
62154;DHT22;48140;45.486;9.226;2023-11-19T15:33:29;17.50;48.20
62154;DHT22;48140;45.486;9.226;2023-11-19T15:35:55;17.30;48.90
62154;DHT22;48140;45.486;9.226;2023-11-19T15:38:20;17.10;49.50
62154;DHT22;48140;45.486;9.226;2023-11-19T15:40:46;16.80;50.30
62154;DHT22;48140;45.486;9.226;2023-11-19T15:43:12;16.00;52.10
62154;DHT22;48140;45.486;9.226;2023-11-19T15:45:37;15.70;53.10
62154;DHT22;48140;45.486;9.226;2023-11-19T15:48:05;15.40;54.10
62154;DHT22;48140;45.486;9.226;2023-11-19T15:50:31;15.20;55.30
62154;DHT22;48140;45.486;9.226;2023-11-19T15:52:57;15.00;56.40
62154;DHT22;48140;45.486;9.226;2023-11-19T15:55:24;14.80;56.90